sensor_id;sensor_type;location;lat;lon;timestamp;pressure;altitude;pressure_sealevel;temperature;humidity
43115;BME280;28727;50.068;14.452;2023-12-28T00:01:24;99384.09;;;5.65;69.24
43115;BME280;28727;50.068;14.452;2023-12-28T00:03:56;99382.56;;;5.63;69.36
43115;BME280;28727;50.068;14.452;2023-12-28T00:06:28;99378.41;;;5.60;69.68
43115;BME280;28727;50.068;14.452;2023-12-28T00:09:00;99377.88;;;5.57;69.82
43115;BME280;28727;50.068;14.452;2023-12-28T00:11:42;99381.03;;;5.51;69.50
43115;BME280;28727;50.068;14.452;2023-12-28T00:14:22;99384.19;;;5.45;69.95
43115;BME280;28727;50.068;14.452;2023-12-28T00:16:57;99375.22;;;5.38;70.20
43115;BME280;28727;50.068;14.452;2023-12-28T00:19:29;99378.38;;;5.31;70.28
43115;BME280;28727;50.068;14.452;2023-12-28T00:22:03;99374.50;;;5.26;70.43
43115;BME280;28727;50.068;14.452;2023-12-28T00:24:35;99377.53;;;5.21;70.37
43115;BME280;28727;50.068;14.452;2023-12-28T00:27:07;99374.22;;;5.19;70.32
43115;BME280;28727;50.068;14.452;2023-12-28T00:29:39;99365.09;;;5.14;70.67
43115;BME280;28727;50.068;14.452;2023-12-28T00:32:12;99360.16;;;5.11;70.72
43115;BME280;28727;50.068;14.452;2023-12-28T00:34:44;99368.53;;;5.05;70.77
43115;BME280;28727;50.068;14.452;2023-12-28T00:37:16;99372.22;;;5.02;71.12
43115;BME280;28727;50.068;14.452;2023-12-28T00:39:49;99377.63;;;5.01;71.48
43115;BME280;28727;50.068;14.452;2023-12-28T00:42:22;99368.09;;;5.00;71.29
43115;BME280;28727;50.068;14.452;2023-12-28T00:44:53;99363.41;;;4.93;71.28
43115;BME280;28727;50.068;14.452;2023-12-28T00:47:28;99371.63;;;4.89;71.29
43115;BME280;28727;50.068;14.452;2023-12-28T00:49:59;99352.75;;;4.85;71.48
43115;BME280;28727;50.068;14.452;2023-12-28T00:52:32;99363.34;;;4.84;71.41
43115;BME280;28727;50.068;14.452;2023-12-28T00:55:04;99375.88;;;4.80;71.41
43115;BME280;28727;50.068;14.452;2023-12-28T00:57:36;99372.00;;;4.75;71.99
43115;BME280;28727;50.068;14.452;2023-12-28T01:00:12;99366.91;;;4.73;71.76
43115;BME280;28727;50.068;14.452;2023-12-28T01:02:48;99366.88;;;4.64;72.15
43115;BME280;28727;50.068;14.452;2023-12-28T01:05:21;99368.91;;;4.60;72.51
43115;BME280;28727;50.068;14.452;2023-12-28T01:07:53;99370.00;;;4.58;72.38
43115;BME280;28727;50.068;14.452;2023-12-28T01:10:27;99351.38;;;4.51;72.46
43115;BME280;28727;50.068;14.452;2023-12-28T01:12:59;99352.34;;;4.50;72.29
43115;BME280;28727;50.068;14.452;2023-12-28T01:15:34;99363.06;;;4.47;72.50
43115;BME280;28727;50.068;14.452;2023-12-28T01:18:05;99362.34;;;4.45;72.77
43115;BME280;28727;50.068;14.452;2023-12-28T01:20:41;99360.69;;;4.44;72.58
43115;BME280;28727;50.068;14.452;2023-12-28T01:23:13;99366.88;;;4.43;72.82
43115;BME280;28727;50.068;14.452;2023-12-28T01:25:47;99372.50;;;4.38;72.50
43115;BME280;28727;50.068;14.452;2023-12-28T01:28:19;99380.47;;;4.37;72.87
43115;BME280;28727;50.068;14.452;2023-12-28T01:30:51;99378.13;;;4.34;72.82
43115;BME280;28727;50.068;14.452;2023-12-28T01:33:29;99387.31;;;4.28;72.57
43115;BME280;28727;50.068;14.452;2023-12-28T01:36:02;99391.84;;;4.26;72.70
43115;BME280;28727;50.068;14.452;2023-12-28T01:38:34;99381.50;;;4.25;73.35
43115;BME280;28727;50.068;14.452;2023-12-28T01:41:06;99388.50;;;4.24;73.21
43115;BME280;28727;50.068;14.452;2023-12-28T01:43:41;99392.22;;;4.22;73.08
43115;BME280;28727;50.068;14.452;2023-12-28T01:46:20;99392.63;;;4.17;72.97
43115;BME280;28727;50.068;14.452;2023-12-28T01:48:53;99383.22;;;4.15;73.31
43115;BME280;28727;50.068;14.452;2023-12-28T01:51:27;99376.59;;;4.10;73.89
43115;BME280;28727;50.068;14.452;2023-12-28T01:54:00;99363.78;;;4.07;73.67
43115;BME280;28727;50.068;14.452;2023-12-28T01:56:35;99371.75;;;4.06;73.50
43115;BME280;28727;50.068;14.452;2023-12-28T01:59:07;99366.78;;;4.03;73.97
43115;BME280;28727;50.068;14.452;2023-12-28T02:01:39;99368.56;;;4.02;74.27
43115;BME280;28727;50.068;14.452;2023-12-28T02:04:14;99364.28;;;4.01;73.99
43115;BME280;28727;50.068;14.452;2023-12-28T02:06:49;99364.53;;;3.98;74.46
43115;BME280;28727;50.068;14.452;2023-12-28T02:09:21;99360.28;;;3.97;74.41
43115;BME280;28727;50.068;14.452;2023-12-28T02:11:53;99352.44;;;3.97;74.76
43115;BME280;28727;50.068;14.452;2023-12-28T02:14:26;99354.66;;;4.02;74.69
43115;BME280;28727;50.068;14.452;2023-12-28T02:17:20;99337.06;;;4.04;74.49
43115;BME280;28727;50.068;14.452;2023-12-28T02:19:55;99335.28;;;4.04;74.42
43115;BME280;28727;50.068;14.452;2023-12-28T02:22:27;99335.28;;;4.04;74.10
43115;BME280;28727;50.068;14.452;2023-12-28T02:30:11;99331.66;;;3.96;75.01
43115;BME280;28727;50.068;14.452;2023-12-28T02:35:44;99335.81;;;3.98;74.94
43115;BME280;28727;50.068;14.452;2023-12-28T02:38:18;99337.81;;;3.95;74.75
43115;BME280;28727;50.068;14.452;2023-12-28T02:40:51;99341.66;;;3.91;74.74
43115;BME280;28727;50.068;14.452;2023-12-28T02:43:23;99347.00;;;3.89;75.11
43115;BME280;28727;50.068;14.452;2023-12-28T02:45:55;99331.19;;;3.91;74.79
43115;BME280;28727;50.068;14.452;2023-12-28T02:48:27;99322.53;;;3.90;75.42
43115;BME280;28727;50.068;14.452;2023-12-28T02:50:59;99320.63;;;3.92;75.60
43115;BME280;28727;50.068;14.452;2023-12-28T02:53:31;99301.41;;;3.93;75.25
43115;BME280;28727;50.068;14.452;2023-12-28T02:56:03;99297.13;;;3.92;75.64
43115;BME280;28727;50.068;14.452;2023-12-28T02:58:35;99300.69;;;3.91;75.52
43115;BME280;28727;50.068;14.452;2023-12-28T03:01:08;99303.41;;;3.90;75.71
43115;BME280;28727;50.068;14.452;2023-12-28T03:03:42;99297.00;;;3.94;75.37
43115;BME280;28727;50.068;14.452;2023-12-28T03:06:14;99282.41;;;3.91;75.37
43115;BME280;28727;50.068;14.452;2023-12-28T03:08:46;99280.88;;;3.89;75.24
43115;BME280;28727;50.068;14.452;2023-12-28T03:11:18;99277.69;;;3.85;75.45
43115;BME280;28727;50.068;14.452;2023-12-28T03:13:54;99269.84;;;3.85;75.21
43115;BME280;28727;50.068;14.452;2023-12-28T03:16:26;99278.78;;;3.83;75.38
43115;BME280;28727;50.068;14.452;2023-12-28T03:18:58;99278.91;;;3.81;75.34
43115;BME280;28727;50.068;14.452;2023-12-28T03:21:30;99272.84;;;3.81;75.00
43115;BME280;28727;50.068;14.452;2023-12-28T03:24:09;99280.69;;;3.81;75.69
43115;BME280;28727;50.068;14.452;2023-12-28T03:26:41;99286.63;;;3.83;75.04
43115;BME280;28727;50.068;14.452;2023-12-28T03:29:13;99307.63;;;3.81;74.98
43115;BME280;28727;50.068;14.452;2023-12-28T03:31:45;99319.41;;;3.76;74.82
43115;BME280;28727;50.068;14.452;2023-12-28T03:34:20;99312.41;;;3.76;74.80
43115;BME280;28727;50.068;14.452;2023-12-28T03:36:53;99299.47;;;3.75;75.45
43115;BME280;28727;50.068;14.452;2023-12-28T03:39:27;99297.81;;;3.74;75.00
43115;BME280;28727;50.068;14.452;2023-12-28T03:41:59;99303.97;;;3.72;74.82
43115;BME280;28727;50.068;14.452;2023-12-28T03:44:31;99297.50;;;3.67;74.94
43115;BME280;28727;50.068;14.452;2023-12-28T03:47:06;99316.03;;;3.64;74.96
43115;BME280;28727;50.068;14.452;2023-12-28T03:49:41;99305.25;;;3.57;75.67
43115;BME280;28727;50.068;14.452;2023-12-28T03:52:13;99313.31;;;3.54;75.54
43115;BME280;28727;50.068;14.452;2023-12-28T03:54:55;99306.47;;;3.53;75.33
43115;BME280;28727;50.068;14.452;2023-12-28T03:57:27;99307.53;;;3.51;75.27
43115;BME280;28727;50.068;14.452;2023-12-28T04:00:02;99313.25;;;3.45;76.36
43115;BME280;28727;50.068;14.452;2023-12-28T04:02:42;99294.88;;;3.46;75.65
43115;BME280;28727;50.068;14.452;2023-12-28T04:05:14;99293.22;;;3.45;76.23
43115;BME280;28727;50.068;14.452;2023-12-28T04:07:47;99290.72;;;3.44;76.44
43115;BME280;28727;50.068;14.452;2023-12-28T04:10:31;99297.72;;;3.43;76.35
43115;BME280;28727;50.068;14.452;2023-12-28T04:13:04;99304.47;;;3.46;75.75
43115;BME280;28727;50.068;14.452;2023-12-28T04:15:36;99297.34;;;3.48;75.76
43115;BME280;28727;50.068;14.452;2023-12-28T04:18:08;99295.31;;;3.51;75.92
43115;BME280;28727;50.068;14.452;2023-12-28T04:20:48;99295.31;;;3.51;75.62
43115;BME280;28727;50.068;14.452;2023-12-28T04:23:20;99287.59;;;3.50;75.79
43115;BME280;28727;50.068;14.452;2023-12-28T04:25:52;99277.28;;;3.48;75.43
43115;BME280;28727;50.068;14.452;2023-12-28T04:28:27;99275.50;;;3.49;75.61
43115;BME280;28727;50.068;14.452;2023-12-28T04:31:06;99280.88;;;3.47;75.21
43115;BME280;28727;50.068;14.452;2023-12-28T04:33:39;99278.09;;;3.49;75.52
43115;BME280;28727;50.068;14.452;2023-12-28T04:36:13;99271.22;;;3.48;74.96
43115;BME280;28727;50.068;14.452;2023-12-28T04:38:45;99270.66;;;3.44;75.31
43115;BME280;28727;50.068;14.452;2023-12-28T04:41:17;99270.78;;;3.43;75.38
43115;BME280;28727;50.068;14.452;2023-12-28T04:43:49;99273.66;;;3.40;75.61
43115;BME280;28727;50.068;14.452;2023-12-28T04:46:21;99286.59;;;3.41;75.17
43115;BME280;28727;50.068;14.452;2023-12-28T04:48:53;99299.50;;;3.43;75.28
43115;BME280;28727;50.068;14.452;2023-12-28T04:51:27;99299.63;;;3.41;75.55
43115;BME280;28727;50.068;14.452;2023-12-28T04:53:59;99297.59;;;3.45;75.33
43115;BME280;28727;50.068;14.452;2023-12-28T04:56:31;99300.91;;;3.47;74.53
43115;BME280;28727;50.068;14.452;2023-12-28T04:59:03;99314.81;;;3.47;75.00
43115;BME280;28727;50.068;14.452;2023-12-28T05:01:43;99325.38;;;3.46;74.85
43115;BME280;28727;50.068;14.452;2023-12-28T05:04:15;99320.38;;;3.43;74.95
43115;BME280;28727;50.068;14.452;2023-12-28T05:06:48;99317.19;;;3.39;74.58
43115;BME280;28727;50.068;14.452;2023-12-28T05:09:20;99324.31;;;3.37;74.71
43115;BME280;28727;50.068;14.452;2023-12-28T05:11:52;99315.91;;;3.34;75.02
43115;BME280;28727;50.068;14.452;2023-12-28T05:14:26;99321.38;;;3.30;75.28
43115;BME280;28727;50.068;14.452;2023-12-28T05:17:04;99322.47;;;3.28;75.22
43115;BME280;28727;50.068;14.452;2023-12-28T05:19:36;99311.31;;;3.26;75.28
43115;BME280;28727;50.068;14.452;2023-12-28T05:22:09;99331.16;;;3.17;75.11
43115;BME280;28727;50.068;14.452;2023-12-28T05:24:42;99319.66;;;3.09;75.68
43115;BME280;28727;50.068;14.452;2023-12-28T05:27:14;99322.25;;;3.09;75.52
43115;BME280;28727;50.068;14.452;2023-12-28T05:29:46;99319.78;;;3.07;75.39
43115;BME280;28727;50.068;14.452;2023-12-28T05:32:19;99324.03;;;3.08;75.57
43115;BME280;28727;50.068;14.452;2023-12-28T05:34:51;99318.94;;;3.07;75.41
43115;BME280;28727;50.068;14.452;2023-12-28T05:37:26;99318.81;;;3.08;75.02
43115;BME280;28727;50.068;14.452;2023-12-28T05:39:58;99322.03;;;3.12;75.38
43115;BME280;28727;50.068;14.452;2023-12-28T05:42:30;99327.25;;;3.12;74.99
43115;BME280;28727;50.068;14.452;2023-12-28T05:45:02;99322.16;;;3.10;75.15
43115;BME280;28727;50.068;14.452;2023-12-28T05:47:34;99328.78;;;3.14;74.97
43115;BME280;28727;50.068;14.452;2023-12-28T05:50:06;99321.53;;;3.18;74.94
43115;BME280;28727;50.068;14.452;2023-12-28T05:52:39;99319.75;;;3.18;74.58
43115;BME280;28727;50.068;14.452;2023-12-28T05:55:11;99319.63;;;3.20;74.68
43115;BME280;28727;50.068;14.452;2023-12-28T05:57:43;99329.22;;;3.19;74.18
43115;BME280;28727;50.068;14.452;2023-12-28T06:00:16;99335.06;;;3.23;73.97
43115;BME280;28727;50.068;14.452;2023-12-28T06:02:51;99340.50;;;3.20;73.77
43115;BME280;28727;50.068;14.452;2023-12-28T06:05:23;99347.50;;;3.19;74.26
43115;BME280;28727;50.068;14.452;2023-12-28T06:07:55;99346.44;;;3.22;74.26
43115;BME280;28727;50.068;14.452;2023-12-28T06:10:27;99328.75;;;3.25;74.13
43115;BME280;28727;50.068;14.452;2023-12-28T06:12:58;99336.34;;;3.28;73.60
43115;BME280;28727;50.068;14.452;2023-12-28T06:15:30;99333.34;;;3.33;73.36
43115;BME280;28727;50.068;14.452;2023-12-28T06:18:02;99331.47;;;3.35;73.50
43115;BME280;28727;50.068;14.452;2023-12-28T06:20:36;99332.41;;;3.34;73.48
43115;BME280;28727;50.068;14.452;2023-12-28T06:23:08;99335.84;;;3.35;73.39
43115;BME280;28727;50.068;14.452;2023-12-28T06:25:43;99333.09;;;3.36;73.12
43115;BME280;28727;50.068;14.452;2023-12-28T06:28:15;99341.75;;;3.37;73.14
43115;BME280;28727;50.068;14.452;2023-12-28T06:30:46;99343.78;;;3.33;72.70
43115;BME280;28727;50.068;14.452;2023-12-28T06:33:21;99324.69;;;3.33;73.58
43115;BME280;28727;50.068;14.452;2023-12-28T06:35:53;99325.75;;;3.30;73.62
43115;BME280;28727;50.068;14.452;2023-12-28T06:38:26;99330.84;;;3.32;73.05
43115;BME280;28727;50.068;14.452;2023-12-28T06:40:58;99325.06;;;3.28;73.07
43115;BME280;28727;50.068;14.452;2023-12-28T06:43:36;99325.75;;;3.30;73.82
43115;BME280;28727;50.068;14.452;2023-12-28T06:46:08;99321.97;;;3.34;73.50
43115;BME280;28727;50.068;14.452;2023-12-28T06:48:40;99318.97;;;3.39;73.65
43115;BME280;28727;50.068;14.452;2023-12-28T06:51:19;99320.16;;;3.46;73.20
43115;BME280;28727;50.068;14.452;2023-12-28T06:53:52;99328.44;;;3.51;73.21
43115;BME280;28727;50.068;14.452;2023-12-28T06:56:27;99322.00;;;3.55;73.15
43115;BME280;28727;50.068;14.452;2023-12-28T06:58:58;99321.75;;;3.58;71.93
43115;BME280;28727;50.068;14.452;2023-12-28T07:01:30;99326.47;;;3.64;72.83
43115;BME280;28727;50.068;14.452;2023-12-28T07:04:02;99329.78;;;3.66;72.48
43115;BME280;28727;50.068;14.452;2023-12-28T07:06:38;99317.88;;;3.73;72.07
43115;BME280;28727;50.068;14.452;2023-12-28T07:09:10;99308.03;;;3.77;71.81
43115;BME280;28727;50.068;14.452;2023-12-28T07:11:42;99319.25;;;3.88;71.96
43115;BME280;28727;50.068;14.452;2023-12-28T07:14:14;99321.06;;;3.97;71.39
43115;BME280;28727;50.068;14.452;2023-12-28T07:16:48;99324.44;;;4.09;71.38
43115;BME280;28727;50.068;14.452;2023-12-28T07:19:22;99329.72;;;4.19;70.59
43115;BME280;28727;50.068;14.452;2023-12-28T07:21:54;99330.47;;;4.30;70.33
43115;BME280;28727;50.068;14.452;2023-12-28T07:24:32;99326.97;;;4.41;69.57
43115;BME280;28727;50.068;14.452;2023-12-28T07:27:04;99326.06;;;4.51;69.79
43115;BME280;28727;50.068;14.452;2023-12-28T07:29:43;99328.31;;;4.66;69.43
43115;BME280;28727;50.068;14.452;2023-12-28T07:32:14;99337.06;;;4.85;68.75
43115;BME280;28727;50.068;14.452;2023-12-28T07:34:47;99340.34;;;5.66;67.45
43115;BME280;28727;50.068;14.452;2023-12-28T07:37:18;99341.88;;;6.90;64.68
43115;BME280;28727;50.068;14.452;2023-12-28T07:39:53;99343.34;;;8.27;61.69
43115;BME280;28727;50.068;14.452;2023-12-28T07:42:25;99341.66;;;9.53;58.48
43115;BME280;28727;50.068;14.452;2023-12-28T07:44:57;99347.19;;;10.80;55.02
43115;BME280;28727;50.068;14.452;2023-12-28T07:47:29;99351.13;;;11.31;53.06
43115;BME280;28727;50.068;14.452;2023-12-28T07:50:01;99354.22;;;12.11;49.27
43115;BME280;28727;50.068;14.452;2023-12-28T07:52:36;99351.66;;;13.43;46.87
43115;BME280;28727;50.068;14.452;2023-12-28T07:55:12;99340.69;;;13.88;43.20
43115;BME280;28727;50.068;14.452;2023-12-28T07:57:44;99340.31;;;13.20;43.46
43115;BME280;28727;50.068;14.452;2023-12-28T08:00:18;99344.84;;;12.60;43.63
43115;BME280;28727;50.068;14.452;2023-12-28T08:02:50;99357.03;;;12.09;45.96
43115;BME280;28727;50.068;14.452;2023-12-28T08:05:23;99347.72;;;11.76;46.89
43115;BME280;28727;50.068;14.452;2023-12-28T08:07:57;99363.41;;;11.46;47.59
43115;BME280;28727;50.068;14.452;2023-12-28T08:10:29;99368.81;;;11.22;47.91
43115;BME280;28727;50.068;14.452;2023-12-28T08:13:01;99361.00;;;10.98;48.08
43115;BME280;28727;50.068;14.452;2023-12-28T08:15:36;99365.19;;;10.76;48.13
43115;BME280;28727;50.068;14.452;2023-12-28T08:18:07;99358.78;;;10.71;48.11
43115;BME280;28727;50.068;14.452;2023-12-28T08:20:40;99356.31;;;10.69;48.75
43115;BME280;28727;50.068;14.452;2023-12-28T08:23:12;99366.66;;;10.79;48.54
43115;BME280;28727;50.068;14.452;2023-12-28T08:25:49;99354.81;;;10.66;47.75
43115;BME280;28727;50.068;14.452;2023-12-28T08:28:21;99351.72;;;10.47;46.88
43115;BME280;28727;50.068;14.452;2023-12-28T08:30:56;99340.38;;;10.30;47.25
43115;BME280;28727;50.068;14.452;2023-12-28T08:33:28;99339.69;;;10.12;48.06
43115;BME280;28727;50.068;14.452;2023-12-28T08:36:08;99334.91;;;9.99;47.36
43115;BME280;28727;50.068;14.452;2023-12-28T08:38:40;99327.00;;;9.99;46.71
43115;BME280;28727;50.068;14.452;2023-12-28T08:41:19;99334.59;;;9.86;46.69
43115;BME280;28727;50.068;14.452;2023-12-28T08:43:51;99327.00;;;9.83;47.68
43115;BME280;28727;50.068;14.452;2023-12-28T08:46:25;99328.16;;;9.80;46.98
43115;BME280;28727;50.068;14.452;2023-12-28T08:48:57;99313.47;;;9.78;47.46
43115;BME280;28727;50.068;14.452;2023-12-28T08:51:29;99309.34;;;9.75;47.62
43115;BME280;28727;50.068;14.452;2023-12-28T08:54:01;99329.13;;;9.79;47.55
43115;BME280;28727;50.068;14.452;2023-12-28T08:56:33;99343.16;;;9.80;48.07
43115;BME280;28727;50.068;14.452;2023-12-28T08:59:08;99330.94;;;9.79;48.62
43115;BME280;28727;50.068;14.452;2023-12-28T09:01:41;99335.56;;;9.77;48.44
43115;BME280;28727;50.068;14.452;2023-12-28T09:04:14;99336.72;;;9.74;49.45
43115;BME280;28727;50.068;14.452;2023-12-28T09:06:46;99338.53;;;9.74;49.13
43115;BME280;28727;50.068;14.452;2023-12-28T09:09:18;99334.25;;;9.81;49.49
43115;BME280;28727;50.068;14.452;2023-12-28T09:11:49;99336.38;;;9.85;51.62
43115;BME280;28727;50.068;14.452;2023-12-28T09:14:25;99341.50;;;10.03;50.13
43115;BME280;28727;50.068;14.452;2023-12-28T09:16:57;99341.66;;;10.02;49.48
43115;BME280;28727;50.068;14.452;2023-12-28T09:19:28;99351.06;;;9.96;49.91
43115;BME280;28727;50.068;14.452;2023-12-28T09:22:02;99365.09;;;9.97;50.00
43115;BME280;28727;50.068;14.452;2023-12-28T09:24:33;99365.75;;;9.99;50.20
43115;BME280;28727;50.068;14.452;2023-12-28T09:27:07;99369.56;;;9.88;50.63
43115;BME280;28727;50.068;14.452;2023-12-28T09:29:39;99379.13;;;9.89;50.53
43115;BME280;28727;50.068;14.452;2023-12-28T09:32:11;99374.63;;;9.90;50.38
43115;BME280;28727;50.068;14.452;2023-12-28T09:34:43;99361.44;;;9.90;50.80
43115;BME280;28727;50.068;14.452;2023-12-28T09:37:17;99361.28;;;9.91;50.56
43115;BME280;28727;50.068;14.452;2023-12-28T09:39:51;99354.03;;;9.93;50.92
43115;BME280;28727;50.068;14.452;2023-12-28T09:42:30;99356.53;;;9.95;51.31
43115;BME280;28727;50.068;14.452;2023-12-28T09:45:04;99351.06;;;9.96;51.63
43115;BME280;28727;50.068;14.452;2023-12-28T09:47:42;99331.59;;;9.97;52.19
43115;BME280;28727;50.068;14.452;2023-12-28T09:50:18;99319.25;;;9.98;53.28
43115;BME280;28727;50.068;14.452;2023-12-28T09:52:50;99322.19;;;10.03;53.52
43115;BME280;28727;50.068;14.452;2023-12-28T09:55:22;99325.69;;;10.11;53.81
43115;BME280;28727;50.068;14.452;2023-12-28T09:57:57;99327.34;;;10.12;54.35
43115;BME280;28727;50.068;14.452;2023-12-28T10:00:33;99324.88;;;10.19;54.22
43115;BME280;28727;50.068;14.452;2023-12-28T10:03:06;99335.09;;;10.22;55.12
43115;BME280;28727;50.068;14.452;2023-12-28T10:05:40;99347.47;;;10.30;55.00
43115;BME280;28727;50.068;14.452;2023-12-28T10:08:15;99349.13;;;10.31;55.22
43115;BME280;28727;50.068;14.452;2023-12-28T10:10:50;99361.00;;;10.35;55.29
43115;BME280;28727;50.068;14.452;2023-12-28T10:13:33;99359.34;;;10.34;55.54
43115;BME280;28727;50.068;14.452;2023-12-28T10:16:05;99372.69;;;10.32;56.92
43115;BME280;28727;50.068;14.452;2023-12-28T10:18:43;99365.09;;;10.37;56.05
43115;BME280;28727;50.068;14.452;2023-12-28T10:21:20;99369.56;;;10.45;56.05
43115;BME280;28727;50.068;14.452;2023-12-28T10:23:52;99353.03;;;10.51;55.63
43115;BME280;28727;50.068;14.452;2023-12-28T10:26:24;99334.38;;;10.52;55.66
43115;BME280;28727;50.068;14.452;2023-12-28T10:29:01;99335.84;;;10.55;55.49
43115;BME280;28727;50.068;14.452;2023-12-28T10:31:35;99340.28;;;10.62;54.87
43115;BME280;28727;50.068;14.452;2023-12-28T10:34:08;99346.25;;;10.64;54.55
43115;BME280;28727;50.068;14.452;2023-12-28T10:36:40;99343.75;;;10.71;54.57
43115;BME280;28727;50.068;14.452;2023-12-28T10:39:16;99349.66;;;10.73;54.29
43115;BME280;28727;50.068;14.452;2023-12-28T10:41:54;99344.22;;;10.75;54.07
43115;BME280;28727;50.068;14.452;2023-12-28T10:44:27;99338.44;;;10.79;53.75
43115;BME280;28727;50.068;14.452;2023-12-28T10:47:07;99335.78;;;10.79;53.70
43115;BME280;28727;50.068;14.452;2023-12-28T10:49:42;99328.34;;;10.83;53.29
43115;BME280;28727;50.068;14.452;2023-12-28T10:52:16;99339.56;;;10.85;52.99
43115;BME280;28727;50.068;14.452;2023-12-28T10:55:00;99320.91;;;10.86;52.89
43115;BME280;28727;50.068;14.452;2023-12-28T10:58:06;99328.81;;;10.86;52.44
43115;BME280;28727;50.068;14.452;2023-12-28T11:00:47;99332.97;;;10.89;52.21
43115;BME280;28727;50.068;14.452;2023-12-28T11:03:34;99335.41;;;10.90;51.99
43115;BME280;28727;50.068;14.452;2023-12-28T11:06:11;99339.53;;;10.93;51.98
43115;BME280;28727;50.068;14.452;2023-12-28T11:08:43;99341.66;;;10.97;51.45
43115;BME280;28727;50.068;14.452;2023-12-28T11:11:29;99338.88;;;10.91;51.47
43115;BME280;28727;50.068;14.452;2023-12-28T11:14:02;99332.97;;;10.89;51.36
43115;BME280;28727;50.068;14.452;2023-12-28T11:16:37;99335.25;;;10.92;51.26
43115;BME280;28727;50.068;14.452;2023-12-28T11:19:10;99335.75;;;10.95;51.33
43115;BME280;28727;50.068;14.452;2023-12-28T11:21:43;99330.09;;;10.98;51.02
43115;BME280;28727;50.068;14.452;2023-12-28T11:24:18;99317.56;;;11.00;54.04
43115;BME280;28727;50.068;14.452;2023-12-28T11:26:52;99323.91;;;11.14;51.79
43115;BME280;28727;50.068;14.452;2023-12-28T11:29:29;99320.78;;;11.11;51.25
43115;BME280;28727;50.068;14.452;2023-12-28T11:32:08;99319.66;;;11.05;51.50
43115;BME280;28727;50.068;14.452;2023-12-28T11:34:42;99304.81;;;11.04;51.54
43115;BME280;28727;50.068;14.452;2023-12-28T11:37:16;99297.88;;;11.03;51.73
43115;BME280;28727;50.068;14.452;2023-12-28T11:39:51;99299.69;;;11.02;51.73
43115;BME280;28727;50.068;14.452;2023-12-28T11:42:23;99306.63;;;11.03;51.52
43115;BME280;28727;50.068;14.452;2023-12-28T11:44:55;99301.84;;;10.99;50.93
43115;BME280;28727;50.068;14.452;2023-12-28T11:47:30;99293.94;;;10.99;50.92
43115;BME280;28727;50.068;14.452;2023-12-28T11:50:08;99295.75;;;10.98;50.47
43115;BME280;28727;50.068;14.452;2023-12-28T11:52:40;99306.97;;;11.00;50.47
43115;BME280;28727;50.068;14.452;2023-12-28T11:55:22;99299.22;;;10.99;50.22
43115;BME280;28727;50.068;14.452;2023-12-28T11:57:57;99300.88;;;11.00;50.18
43115;BME280;28727;50.068;14.452;2023-12-28T12:00:28;99282.69;;;10.97;49.95
43115;BME280;28727;50.068;14.452;2023-12-28T12:03:03;99278.91;;;10.99;50.24
43115;BME280;28727;50.068;14.452;2023-12-28T12:05:35;99288.28;;;11.02;50.32
43115;BME280;28727;50.068;14.452;2023-12-28T12:08:09;99283.81;;;11.02;50.27
43115;BME280;28727;50.068;14.452;2023-12-28T12:10:42;99288.94;;;11.04;50.53
43115;BME280;28727;50.068;14.452;2023-12-28T12:13:15;99280.19;;;11.03;50.53
43115;BME280;28727;50.068;14.452;2023-12-28T12:15:51;99275.72;;;11.04;50.87
43115;BME280;28727;50.068;14.452;2023-12-28T12:18:29;99274.91;;;11.03;50.79
43115;BME280;28727;50.068;14.452;2023-12-28T12:21:02;99262.03;;;11.00;50.57
43115;BME280;28727;50.068;14.452;2023-12-28T12:23:37;99277.22;;;11.06;51.12
43115;BME280;28727;50.068;14.452;2023-12-28T12:26:09;99263.78;;;11.08;51.05
43115;BME280;28727;50.068;14.452;2023-12-28T12:28:41;99274.44;;;11.00;51.47
43115;BME280;28727;50.068;14.452;2023-12-28T12:31:15;99266.34;;;11.01;51.57
43115;BME280;28727;50.068;14.452;2023-12-28T12:33:48;99258.88;;;11.05;51.71
43115;BME280;28727;50.068;14.452;2023-12-28T12:36:23;99263.50;;;11.03;52.16
43115;BME280;28727;50.068;14.452;2023-12-28T12:38:55;99270.09;;;11.07;52.28
43115;BME280;28727;50.068;14.452;2023-12-28T12:41:27;99268.47;;;11.06;52.42
43115;BME280;28727;50.068;14.452;2023-12-28T12:43:59;99271.44;;;11.03;53.02
43115;BME280;28727;50.068;14.452;2023-12-28T12:46:32;99278.06;;;10.99;53.00
43115;BME280;28727;50.068;14.452;2023-12-28T12:49:05;99276.25;;;10.99;53.27
43115;BME280;28727;50.068;14.452;2023-12-28T12:52:02;99288.63;;;10.99;53.74
43115;BME280;28727;50.068;14.452;2023-12-28T12:54:36;99280.34;;;11.02;53.90
43115;BME280;28727;50.068;14.452;2023-12-28T12:57:11;99287.97;;;10.97;54.15
43115;BME280;28727;50.068;14.452;2023-12-28T12:59:42;99285.16;;;10.98;54.42
43115;BME280;28727;50.068;14.452;2023-12-28T13:02:15;99277.72;;;11.02;54.69
43115;BME280;28727;50.068;14.452;2023-12-28T13:04:57;99270.31;;;10.97;55.05
43115;BME280;28727;50.068;14.452;2023-12-28T13:07:32;99267.13;;;11.02;54.99
43115;BME280;28727;50.068;14.452;2023-12-28T13:10:04;99271.78;;;11.00;55.25
43115;BME280;28727;50.068;14.452;2023-12-28T13:12:37;99271.25;;;11.04;55.28
43115;BME280;28727;50.068;14.452;2023-12-28T13:15:09;99278.03;;;11.07;55.18
43115;BME280;28727;50.068;14.452;2023-12-28T13:17:43;99281.31;;;11.09;55.30
43115;BME280;28727;50.068;14.452;2023-12-28T13:20:15;99278.84;;;11.07;55.32
43115;BME280;28727;50.068;14.452;2023-12-28T13:22:47;99271.94;;;11.06;55.60
43115;BME280;28727;50.068;14.452;2023-12-28T13:25:19;99274.06;;;11.03;55.50
43115;BME280;28727;50.068;14.452;2023-12-28T13:27:50;99274.91;;;11.03;55.48
43115;BME280;28727;50.068;14.452;2023-12-28T13:30:23;99269.63;;;11.03;55.41
43115;BME280;28727;50.068;14.452;2023-12-28T13:33:00;99273.59;;;10.99;55.53
43115;BME280;28727;50.068;14.452;2023-12-28T13:35:33;99272.25;;;11.03;55.59
43115;BME280;28727;50.068;14.452;2023-12-28T13:38:05;99269.16;;;11.00;55.62
43115;BME280;28727;50.068;14.452;2023-12-28T13:40:37;99276.09;;;11.01;55.64